Archival Weather

Chicago O'Hare International

Chicago, Illinois (KORD)

Report from: Wednesday, November 23, 2022 4:51 PM CST
Current time: Monday, July 22, 2024 6:47 AM CDT

Current weather – Weather history – Daily summaries
Weather forecast

Temperature12.2°C (54.0°F)
Dew point3.3°C (37.9°F)
Winds 4 kts (2.1 m/s, 4.6 mph) South (190°)
Visibility10 mi. (16.1 km)
Clouds Ceiling: Broken clouds 25,000 ft. (7,620 m)
Altimeter30.12 in.Hg (1020 mB)
Relative humidity55 %
Density altitude-452 ft. (-138 m)
Sea-level pressure102.0 kPa (1020 mB, 30.13 in.Hg)
Remarks System requires maintenance
Automated weather observing station with precipitation discriminator
Flight conditions Visual Meteorological Conditions
Raw dataKORD 232251Z 19004KT 10SM BKN250 12/03 A3012 RMK AO2 SLP202 T01220033 $
An error has occurred. This application may no longer respond until reloaded. Reload 🗙